Time;durP1;ratioP1;P1;durP2;ratioP2;P2;SDS_P1;SDS_P2;PMS_P1;PMS_P2;Temp;Humidity;BMP_temperature;BMP_pressure;BME280_temperature;BME280_humidity;BME280_pressure;Samples;Min_cycle;Max_cycle;Signal;HPM_P1;HPM_P2
2024/02/09 00:00:17;;;;;;;13.00;7.40;;;;;;;;;;5051219;28;20098;-62
2024/02/09 00:02:45;;;;;;;17.02;8.55;;;;;;;;;;5051075;28;20105;-61
2024/02/09 00:05:19;;;;;;;18.58;8.75;;;;;;;;;;5053507;28;20049;-61
2024/02/09 00:07:56;;;;;;;19.77;9.23;;;;;;;;;;5047232;28;20045;-62
2024/02/09 00:10:23;;;;;;;17.77;9.02;;;;;;;;;;5047150;28;20388;-61
2024/02/09 00:12:51;;;;;;;20.15;9.02;;;;;;;;;;5050588;28;20068;-61
2024/02/09 00:15:25;;;;;;;18.73;9.20;;;;;;;;;;5050694;28;20103;-61
2024/02/09 00:18:07;;;;;;;19.92;9.00;;;;;;;;;;5043744;28;20045;-61
2024/02/09 00:20:41;;;;;;;19.98;9.20;;;;;;;;;;5051087;28;20062;-61
2024/02/09 00:23:15;;;;;;;17.75;8.27;;;;;;;;;;5051868;28;20099;-60
2024/02/09 00:25:43;;;;;;;19.83;9.27;;;;;;;;;;5045972;28;22485;-61
2024/02/09 00:28:17;;;;;;;21.00;9.20;;;;;;;;;;5045185;28;20051;-60
2024/02/09 00:30:44;;;;;;;19.88;8.98;;;;;;;;;;5044653;28;20168;-60
2024/02/09 00:33:11;;;;;;;;;;;;;;;;;;5052349;28;20048;-60
2024/02/09 00:35:46;;;;;;;19.00;8.60;;;;;;;;;;5039270;28;19924;-60
2024/02/09 00:38:15;;;;;;;;;;;;;;;;;;5052175;28;20139;-60
2024/02/09 00:40:42;;;;;;;;;;;;;;;;;;5050673;28;20085;-70
2024/02/09 00:43:23;;;;;;;17.08;8.15;;;;;;;;;;5050657;28;20035;-69
2024/02/09 00:45:51;;;;;;;14.82;8.02;;;;;;;;;;5048081;28;20059;-70
2024/02/09 00:48:26;;;;;;;16.05;8.68;;;;;;;;;;5052083;28;20053;-70
2024/02/09 00:50:53;;;;;;;18.45;9.25;;;;;;;;;;5047528;28;20106;-62
2024/02/09 00:53:27;;;;;;;18.08;8.68;;;;;;;;;;5050204;28;20044;-71
2024/02/09 00:55:54;;;;;;;20.77;9.45;;;;;;;;;;5050351;28;20070;-72
2024/02/09 00:58:22;;;;;;;;;;;;;;;;;;5043853;28;20055;-69
2024/02/09 01:00:56;;;;;;;20.88;9.35;;;;;;;;;;5048771;28;19928;-70
2024/02/09 01:03:24;;;;;;;16.75;8.57;;;;;;;;;;5050140;28;20135;-71
2024/02/09 01:05:52;;;;;;;21.73;10.07;;;;;;;;;;5057041;28;20121;-72
2024/02/09 01:08:29;;;;;;;20.42;7.55;;;;;;;;;;5052634;28;20054;-69
2024/02/09 01:10:57;;;;;;;17.05;8.85;;;;;;;;;;5050743;28;20055;-63
2024/02/09 02:44:51;;;;;;;18.33;9.40;;;;;;;;;;5053644;28;20056;-69
2024/02/09 03:04:18;;;;;;;20.63;8.20;;;;;;;;;;5052101;28;20052;-69
2024/02/09 03:04:41;;;;;;;15.43;7.35;;;;;;;;;;5051000;28;20040;-60
2024/02/09 03:07:35;;;;;;;19.55;9.02;;;;;;;;;;5046469;28;20041;-56
2024/02/09 03:10:42;;;;;;;17.70;8.40;;;;;;;;;;5051071;28;20051;-52
2024/02/09 03:13:36;;;;;;;20.58;8.32;;;;;;;;;;5051134;28;20049;-53
2024/02/09 03:16:23;;;;;;;20.52;9.63;;;;;;;;;;5050007;28;20052;-54
2024/02/09 03:19:17;;;;;;;22.23;10.40;;;;;;;;;;5052130;28;20170;-55
2024/02/09 03:22:04;;;;;;;21.95;10.05;;;;;;;;;;5053753;28;20056;-60
2024/02/09 03:25:07;;;;;;;20.23;9.88;;;;;;;;;;5053487;28;20899;-60
2024/02/09 03:27:52;;;;;;;27.92;11.45;;;;;;;;;;5051467;28;20063;-60
2024/02/09 03:30:46;;;;;;;24.83;10.85;;;;;;;;;;5052097;28;21649;-60
2024/02/09 03:33:33;;;;;;;24.23;10.02;;;;;;;;;;5053078;28;20056;-60
2024/02/09 03:36:27;;;;;;;27.10;10.77;;;;;;;;;;5055318;28;20041;-70
2024/02/09 03:39:14;;;;;;;25.75;10.93;;;;;;;;;;5057399;28;20056;-70
2024/02/09 03:42:08;;;;;;;24.98;11.27;;;;;;;;;;5053875;28;20045;-70
2024/02/09 03:45:06;;;;;;;19.75;9.77;;;;;;;;;;5052077;28;20157;-69
2024/02/09 03:48:00;;;;;;;26.07;10.30;;;;;;;;;;5050701;28;20048;-70
2024/02/09 03:50:45;;;;;;;25.37;10.40;;;;;;;;;;5049287;28;20044;-60
2024/02/09 03:53:39;;;;;;;25.48;9.27;;;;;;;;;;5052171;28;20659;-60
2024/02/09 03:56:26;;;;;;;30.20;11.37;;;;;;;;;;5049799;28;20419;-60
2024/02/09 03:59:20;;;;;;;21.80;10.10;;;;;;;;;;5049484;28;20057;-60
2024/02/09 04:02:14;;;;;;;25.10;11.02;;;;;;;;;;5047802;28;20055;-50
2024/02/09 04:05:03;;;;;;;26.27;10.05;;;;;;;;;;5039464;28;20207;-50
2024/02/09 04:07:59;;;;;;;25.27;10.60;;;;;;;;;;5049921;28;20052;-52
2024/02/09 04:10:53;;;;;;;24.38;10.10;;;;;;;;;;5050220;28;20114;-50
2024/02/09 04:13:49;;;;;;;21.38;9.27;;;;;;;;;;5049348;28;20600;-52
2024/02/09 04:16:34;;;;;;;21.98;8.68;;;;;;;;;;5051291;28;20049;-54
2024/02/09 04:19:29;;;;;;;18.65;8.60;;;;;;;;;;5048056;28;20153;-61
2024/02/09 04:22:15;;;;;;;15.82;8.43;;;;;;;;;;5049270;28;20045;-62
2024/02/09 04:25:09;;;;;;;18.08;8.10;;;;;;;;;;5045068;28;20400;-61
2024/02/09 04:28:00;;;;;;;18.07;8.53;;;;;;;;;;5048806;28;20049;-61
2024/02/09 04:30:50;;;;;;;18.17;8.83;;;;;;;;;;5051845;28;20048;-61
2024/02/09 04:33:39;;;;;;;16.17;8.10;;;;;;;;;;5048205;28;20518;-59
2024/02/09 04:36:33;;;;;;;16.77;8.07;;;;;;;;;;5055751;28;20040;-59
2024/02/09 04:39:25;;;;;;;16.75;8.27;;;;;;;;;;5040339;28;20407;-59
2024/02/09 04:42:12;;;;;;;18.45;8.18;;;;;;;;;;5054035;28;20052;-59
2024/02/09 04:45:12;;;;;;;22.13;7.38;;;;;;;;;;5049722;28;20465;-59
2024/02/09 04:48:00;;;;;;;16.30;7.00;;;;;;;;;;5048788;28;20065;-68
2024/02/09 04:50:55;;;;;;;14.32;7.45;;;;;;;;;;5044999;28;20052;-69
2024/02/09 04:53:41;;;;;;;16.02;7.40;;;;;;;;;;5049566;28;20049;-68
2024/02/09 04:56:35;;;;;;;15.75;7.18;;;;;;;;;;5047233;28;20053;-68
2024/02/09 04:59:26;;;;;;;17.52;7.65;;;;;;;;;;5047530;28;20475;-69
2024/02/09 05:02:17;;;;;;;15.85;7.65;;;;;;;;;;5047169;28;20416;-60
2024/02/09 05:05:03;;;;;;;14.82;7.20;;;;;;;;;;5051707;28;20181;-60
2024/02/09 05:07:58;;;;;;;15.35;7.22;;;;;;;;;;5052083;28;20504;-60
2024/02/09 05:10:46;;;;;;;14.02;6.88;;;;;;;;;;5046847;28;20057;-60
2024/02/09 05:13:40;;;;;;;13.68;6.72;;;;;;;;;;5052926;28;20044;-59
2024/02/09 05:16:36;;;;;;;12.88;6.57;;;;;;;;;;5050864;28;20063;-60
2024/02/09 05:19:30;;;;;;;17.00;6.57;;;;;;;;;;5050065;28;20150;-59
2024/02/09 05:22:24;;;;;;;15.40;7.72;;;;;;;;;;5048313;28;20567;-60
2024/02/09 05:25:13;;;;;;;15.38;7.40;;;;;;;;;;5050662;28;20045;-59
2024/02/09 05:28:06;;;;;;;14.55;7.05;;;;;;;;;;5049350;28;20136;-60
2024/02/09 05:30:55;;;;;;;17.15;7.43;;;;;;;;;;5049654;28;20079;-59
2024/02/09 05:33:47;;;;;;;13.02;6.78;;;;;;;;;;5050896;28;20488;-62
2024/02/09 05:36:36;;;;;;;18.48;7.65;;;;;;;;;;5054544;28;20549;-61
2024/02/09 05:39:29;;;;;;;16.40;7.85;;;;;;;;;;5052695;28;20133;-59
2024/02/09 05:42:15;;;;;;;17.60;8.13;;;;;;;;;;5048746;28;20049;-60
2024/02/09 05:45:16;;;;;;;16.85;8.55;;;;;;;;;;5041616;28;20181;-59
2024/02/09 05:48:05;;;;;;;12.82;7.00;;;;;;;;;;5041902;28;20044;-57
2024/02/09 05:50:57;;;;;;;15.50;7.40;;;;;;;;;;5053373;28;20412;-59
2024/02/09 05:53:48;;;;;;;17.40;8.35;;;;;;;;;;5054435;28;20431;-60
2024/02/09 05:56:44;;;;;;;13.98;7.18;;;;;;;;;;5053178;28;20052;-50
2024/02/09 05:59:29;;;;;;;17.90;7.95;;;;;;;;;;5050336;28;20044;-53
2024/02/09 06:02:23;;;;;;;15.23;7.80;;;;;;;;;;5051242;28;20040;-50
2024/02/09 06:05:12;;;;;;;15.65;6.43;;;;;;;;;;5055214;28;20052;-51
2024/02/09 06:08:08;;;;;;;15.77;8.38;;;;;;;;;;5044970;28;20612;-51
2024/02/09 06:10:54;;;;;;;16.30;7.90;;;;;;;;;;5049847;28;20052;-49
2024/02/09 06:13:48;;;;;;;15.20;5.88;;;;;;;;;;5054727;28;20044;-61
2024/02/09 06:16:35;;;;;;;18.20;8.05;;;;;;;;;;5053996;28;20139;-60
2024/02/09 06:19:29;;;;;;;16.08;7.50;;;;;;;;;;5053856;28;20041;-60
2024/02/09 06:22:16;;;;;;;16.13;8.02;;;;;;;;;;5057111;28;20049;-60
2024/02/09 06:25:10;;;;;;;9.20;4.88;;;;;;;;;;5056278;28;20124;-60
2024/02/09 06:28:04;;;;;;;17.88;8.77;;;;;;;;;;5060133;28;20047;-60
2024/02/09 06:30:58;;;;;;;16.08;8.02;;;;;;;;;;5056332;28;20381;-51
2024/02/09 06:33:49;;;;;;;19.58;8.13;;;;;;;;;;5057146;28;20037;-53
2024/02/09 06:36:39;;;;;;;19.30;8.07;;;;;;;;;;5057803;28;20047;-52
2024/02/09 06:39:27;;;;;;;11.90;6.70;;;;;;;;;;5056856;28;20512;-54
2024/02/09 06:42:21;;;;;;;14.30;7.30;;;;;;;;;;5056459;28;20036;-49
2024/02/09 06:45:16;;;;;;;14.27;6.22;;;;;;;;;;5054382;28;20122;-50
2024/02/09 06:48:09;;;;;;;18.75;8.88;;;;;;;;;;5052635;28;20105;-49
2024/02/09 06:50:58;;;;;;;21.08;9.07;;;;;;;;;;5056918;28;20128;-53
2024/02/09 06:53:54;;;;;;;18.75;9.18;;;;;;;;;;5053881;28;20052;-52
2024/02/09 06:56:38;;;;;;;17.88;9.10;;;;;;;;;;5053315;28;20041;-51
2024/02/09 06:59:32;;;;;;;18.67;9.20;;;;;;;;;;5054954;28;20545;-60
2024/02/09 07:02:20;;;;;;;16.70;9.00;;;;;;;;;;5052690;28;20049;-61
2024/02/09 07:05:15;;;;;;;14.95;7.10;;;;;;;;;;5056090;28;20389;-60
2024/02/09 07:08:02;;;;;;;20.98;9.07;;;;;;;;;;5054898;28;20131;-60
2024/02/09 07:10:55;;;;;;;17.88;8.52;;;;;;;;;;5054926;28;20227;-59
2024/02/09 07:13:42;;;;;;;24.30;9.20;;;;;;;;;;5052637;28;20484;-52
2024/02/09 07:16:36;;;;;;;18.95;9.05;;;;;;;;;;5052968;28;20045;-53
2024/02/09 07:19:23;;;;;;;24.70;10.93;;;;;;;;;;5053376;28;20511;-53
2024/02/09 07:22:17;;;;;;;18.52;9.27;;;;;;;;;;5058430;28;20045;-54
2024/02/09 07:25:11;;;;;;;20.27;9.25;;;;;;;;;;5057325;28;20123;-48
2024/02/09 07:27:59;;;;;;;18.23;8.33;;;;;;;;;;5057364;28;20056;-53
2024/02/09 07:30:52;;;;;;;16.60;8.38;;;;;;;;;;5056392;28;20044;-52
2024/02/09 07:33:39;;;;;;;17.23;8.10;;;;;;;;;;5055088;28;20517;-52
2024/02/09 07:36:34;;;;;;;15.93;8.30;;;;;;;;;;5055491;28;20530;-50
2024/02/09 07:39:21;;;;;;;18.93;9.13;;;;;;;;;;5055821;28;20094;-60
2024/02/09 07:42:17;;;;;;;19.42;8.70;;;;;;;;;;5053119;28;20105;-63
2024/02/09 07:45:12;;;;;;;17.37;8.20;;;;;;;;;;5053525;28;20060;-63
2024/02/09 07:48:03;;;;;;;20.03;9.17;;;;;;;;;;5054038;28;20048;-60
2024/02/09 07:50:52;;;;;;;16.60;8.55;;;;;;;;;;5054280;28;20085;-60
2024/02/09 07:53:48;;;;;;;14.75;6.78;;;;;;;;;;5056475;28;20127;-60
2024/02/09 07:56:32;;;;;;;15.80;8.25;;;;;;;;;;5053287;28;20114;-53
2024/02/09 07:59:25;;;;;;;15.00;6.70;;;;;;;;;;5049413;28;20049;-50
2024/02/09 08:02:19;;;;;;;15.50;7.73;;;;;;;;;;5051403;28;20063;-50
2024/02/09 08:05:17;;;;;;;13.27;7.25;;;;;;;;;;5054227;28;20614;-52
2024/02/09 08:08:03;;;;;;;13.82;6.55;;;;;;;;;;5051890;28;20099;-60
2024/02/09 08:10:50;;;;;;;14.27;5.80;;;;;;;;;;5055126;28;20040;-59
2024/02/09 08:13:44;;;;;;;14.73;6.97;;;;;;;;;;5053578;28;20299;-59
2024/02/09 08:16:31;;;;;;;15.17;6.37;;;;;;;;;;5053760;28;20052;-59
2024/02/09 08:19:25;;;;;;;13.37;5.63;;;;;;;;;;5058303;28;20052;-60
2024/02/09 08:22:12;;;;;;;10.95;5.72;;;;;;;;;;5058209;28;20060;-60
2024/02/09 08:25:06;;;;;;;12.77;5.67;;;;;;;;;;5055622;28;20045;-60
2024/02/09 08:27:53;;;;;;;10.13;5.55;;;;;;;;;;5053612;28;20532;-60
2024/02/09 08:30:47;;;;;;;11.83;5.57;;;;;;;;;;5052473;28;20139;-60
2024/02/09 08:33:36;;;;;;;10.13;4.85;;;;;;;;;;5052415;28;20530;-60
2024/02/09 08:36:28;;;;;;;10.90;4.63;;;;;;;;;;5051102;28;20053;-60
2024/02/09 08:39:16;;;;;;;8.02;4.25;;;;;;;;;;5052428;28;20201;-60
2024/02/09 08:42:09;;;;;;;9.97;5.20;;;;;;;;;;5051635;28;20137;-62
2024/02/09 08:45:03;;;;;;;8.70;4.43;;;;;;;;;;5053791;28;20056;-62
2024/02/09 08:47:57;;;;;;;8.27;4.43;;;;;;;;;;5050029;28;20078;-61
2024/02/09 08:50:46;;;;;;;6.97;4.23;;;;;;;;;;5051381;28;20045;-61
2024/02/09 08:53:40;;;;;;;8.52;4.50;;;;;;;;;;5052360;28;20489;-61
2024/02/09 08:56:27;;;;;;;7.10;3.83;;;;;;;;;;5050565;28;20045;-62
2024/02/09 08:59:21;;;;;;;10.30;4.32;;;;;;;;;;5048009;28;20134;-61
2024/02/09 09:02:10;;;;;;;6.93;3.60;;;;;;;;;;5049915;28;20068;-61
2024/02/09 09:05:05;;;;;;;8.82;4.18;;;;;;;;;;5051302;28;20802;-59
2024/02/09 09:07:49;;;;;;;6.90;3.90;;;;;;;;;;5053119;28;20056;-61
2024/02/09 09:10:43;;;;;;;7.10;3.78;;;;;;;;;;5048834;28;20056;-62
2024/02/09 09:13:30;;;;;;;8.38;4.10;;;;;;;;;;5052186;28;20134;-61
2024/02/09 09:16:24;;;;;;;11.63;4.43;;;;;;;;;;5056362;28;20049;-61
2024/02/09 09:19:12;;;;;;;7.77;4.13;;;;;;;;;;5054169;28;20055;-61
2024/02/09 09:22:05;;;;;;;8.52;4.07;;;;;;;;;;5053939;28;21381;-52
2024/02/09 09:24:52;;;;;;;9.65;4.03;;;;;;;;;;5055921;28;20041;-52
2024/02/09 09:27:46;;;;;;;7.75;3.28;;;;;;;;;;5055600;28;20048;-52
2024/02/09 09:30:33;;;;;;;9.30;3.35;;;;;;;;;;5055126;28;20087;-52
2024/02/09 09:33:27;;;;;;;5.50;3.15;;;;;;;;;;5055474;28;20044;-60
2024/02/09 09:36:21;;;;;;;8.18;3.20;;;;;;;;;;5053991;28;20182;-61
2024/02/09 09:39:15;;;;;;;5.05;3.22;;;;;;;;;;5057631;28;20527;-61
2024/02/09 09:42:09;;;;;;;8.68;3.35;;;;;;;;;;5057446;28;20052;-61
2024/02/09 09:45:10;;;;;;;11.05;3.85;;;;;;;;;;5053551;28;20049;-61
2024/02/09 09:47:57;;;;;;;5.53;3.33;;;;;;;;;;5057648;28;20072;-61
2024/02/09 09:50:53;;;;;;;6.93;3.78;;;;;;;;;;5056788;28;20053;-50
2024/02/09 09:53:47;;;;;;;8.70;3.70;;;;;;;;;;5052786;28;20060;-51
2024/02/09 09:56:40;;;;;;;6.47;3.15;;;;;;;;;;5055297;28;20770;-50
2024/02/09 09:59:28;;;;;;;7.05;3.97;;;;;;;;;;5054789;28;20511;-70
2024/02/09 10:02:22;;;;;;;6.18;3.50;;;;;;;;;;5054285;28;20098;-61
2024/02/09 10:05:09;;;;;;;5.90;3.38;;;;;;;;;;5057514;28;20052;-61
2024/02/09 10:08:03;;;;;;;6.47;3.33;;;;;;;;;;5054770;28;20044;-61
2024/02/09 10:10:51;;;;;;;7.47;3.60;;;;;;;;;;5053517;28;20162;-61
2024/02/09 10:13:44;;;;;;;7.65;3.65;;;;;;;;;;5056753;28;20052;-61
2024/02/09 10:16:31;;;;;;;9.23;3.90;;;;;;;;;;5055890;28;20048;-61
2024/02/09 10:19:25;;;;;;;8.80;4.07;;;;;;;;;;5058814;28;20495;-62
2024/02/09 10:22:13;;;;;;;3.97;2.33;;;;;;;;;;5056005;28;20103;-61
2024/02/09 10:25:08;;;;;;;6.78;3.72;;;;;;;;;;5036446;28;20889;-61
2024/02/09 10:27:53;;;;;;;6.50;3.50;;;;;;;;;;5035734;28;20045;-61
2024/02/09 10:30:52;;;;;;;9.15;4.38;;;;;;;;;;5034527;28;20060;-60
2024/02/09 10:33:37;;;;;;;8.00;3.90;;;;;;;;;;5033873;28;20079;-61
2024/02/09 10:36:31;;;;;;;7.07;3.85;;;;;;;;;;5035371;28;20045;-60
2024/02/09 10:39:19;;;;;;;9.05;4.13;;;;;;;;;;5032887;28;20731;-60
2024/02/09 10:42:14;;;;;;;8.10;4.18;;;;;;;;;;5032320;28;20401;-60
2024/02/09 10:45:13;;;;;;;5.50;3.17;;;;;;;;;;5033169;28;20057;-60
2024/02/09 10:48:06;;;;;;;6.60;3.72;;;;;;;;;;5035768;28;20054;-60
2024/02/09 10:50:54;;;;;;;8.38;3.72;;;;;;;;;;5031749;28;20060;-60
2024/02/09 10:53:56;;;;;;;8.82;2.92;;;;;;;;;;5035033;28;20041;-60
2024/02/09 10:56:43;;;;;;;6.25;3.60;;;;;;;;;;5034982;28;20056;-60
2024/02/09 10:59:37;;;;;;;10.57;4.32;;;;;;;;;;5033861;28;20051;-54
2024/02/09 11:02:30;;;;;;;8.85;4.35;;;;;;;;;;5035683;28;20385;-52
2024/02/09 11:05:23;;;;;;;5.75;3.20;;;;;;;;;;5031665;28;20056;-53
2024/02/09 11:08:18;;;;;;;6.10;3.63;;;;;;;;;;5033563;28;20049;-52
2024/02/09 11:11:05;;;;;;;7.67;4.10;;;;;;;;;;5034277;28;20053;-54
2024/02/09 11:14:09;;;;;;;8.48;4.22;;;;;;;;;;5032701;28;20535;-52
2024/02/09 11:16:56;;;;;;;7.57;4.30;;;;;;;;;;5037989;28;20094;-60
2024/02/09 11:19:52;;;;;;;6.60;3.83;;;;;;;;;;5034041;28;20132;-60
2024/02/09 11:22:40;;;;;;;;;;;;;;;;;;5037374;28;20057;-60
2024/02/09 11:25:34;;;;;;;7.78;3.70;;;;;;;;;;5038951;28;20379;-61
2024/02/09 11:28:20;;;;;;;7.13;3.85;;;;;;;;;;5030607;28;20056;-54
2024/02/09 11:31:14;;;;;;;8.30;3.95;;;;;;;;;;5035450;28;20053;-51
2024/02/09 11:34:02;;;;;;;7.93;4.38;;;;;;;;;;5033803;28;20441;-50
2024/02/09 11:37:00;;;;;;;8.18;4.07;;;;;;;;;;5033344;28;20049;-53
2024/02/09 11:39:46;;;;;;;6.97;4.03;;;;;;;;;;5033948;28;20065;-51
2024/02/09 11:42:40;;;;;;;10.30;3.65;;;;;;;;;;5032415;28;20049;-49
2024/02/09 11:45:36;;;;;;;9.65;4.20;;;;;;;;;;5032699;28;20080;-60
2024/02/09 11:48:28;;;;;;;8.18;4.30;;;;;;;;;;5032968;28;20413;-60
2024/02/09 11:51:20;;;;;;;7.03;3.95;;;;;;;;;;5035685;28;20049;-60
2024/02/09 11:54:17;;;;;;;6.65;3.97;;;;;;;;;;5032545;28;20497;-61
2024/02/09 11:57:11;;;;;;;7.70;3.78;;;;;;;;;;5033017;28;20119;-70
2024/02/09 11:59:59;;;;;;;7.90;3.92;;;;;;;;;;5033142;28;20053;-69
2024/02/09 12:02:52;;;;;;;7.68;4.20;;;;;;;;;;5033805;28;20367;-70
2024/02/09 12:05:50;;;;;;;7.38;4.05;;;;;;;;;;5031166;28;20138;-70
2024/02/09 12:08:34;;;;;;;8.95;4.05;;;;;;;;;;5031892;28;20057;-69
2024/02/09 12:11:28;;;;;;;9.20;4.15;;;;;;;;;;5037960;28;20046;-60
2024/02/09 12:14:29;;;;;;;12.40;2.97;;;;;;;;;;5032266;28;20111;-60
2024/02/09 12:17:24;;;;;;;8.02;3.92;;;;;;;;;;5033591;28;20048;-59
2024/02/09 12:20:13;;;;;;;7.20;4.20;;;;;;;;;;5036214;28;20056;-60
2024/02/09 12:23:05;;;;;;;5.60;3.92;;;;;;;;;;5019170;28;20492;-61
2024/02/09 12:25:59;;;;;;;12.57;3.95;;;;;;;;;;5036341;28;20048;-60
2024/02/09 12:28:46;;;;;;;8.63;4.43;;;;;;;;;;5034231;28;20224;-60
2024/02/09 12:31:46;;;;;;;10.05;4.00;;;;;;;;;;5037336;28;20057;-60
2024/02/09 12:34:30;;;;;;;6.93;3.92;;;;;;;;;;5032682;28;20049;-60
2024/02/09 12:37:24;;;;;;;10.38;4.65;;;;;;;;;;5032120;28;20421;-60
2024/02/09 12:40:16;;;;;;;4.95;3.58;;;;;;;;;;5032188;28;20126;-59
2024/02/09 12:43:13;;;;;;;7.30;4.00;;;;;;;;;;5031471;28;20527;-60
2024/02/09 12:46:07;;;;;;;8.40;4.43;;;;;;;;;;5033202;28;20057;-59
2024/02/09 12:49:00;;;;;;;12.50;5.03;;;;;;;;;;5032275;28;20045;-59
2024/02/09 12:51:54;;;;;;;8.65;4.80;;;;;;;;;;5031755;28;20111;-49
2024/02/09 12:54:42;;;;;;;10.68;4.97;;;;;;;;;;5031142;28;20493;-69
2024/02/09 12:57:39;;;;;;;8.15;4.68;;;;;;;;;;5032546;28;20048;-68
2024/02/09 13:00:30;;;;;;;8.55;4.57;;;;;;;;;;5033805;28;20197;-70
2024/02/09 13:03:17;;;;;;;11.20;5.20;;;;;;;;;;5036163;28;20131;-69
2024/02/09 13:06:13;;;;;;;9.02;4.40;;;;;;;;;;5036983;28;20053;-69
2024/02/09 13:08:59;;;;;;;9.23;4.10;;;;;;;;;;5036462;28;20514;-50
2024/02/09 13:11:52;;;;;;;8.75;4.60;;;;;;;;;;5037970;28;20773;-48
2024/02/09 13:14:46;;;;;;;6.85;4.05;;;;;;;;;;5035674;28;20099;-51
2024/02/09 13:17:40;;;;;;;6.97;4.30;;;;;;;;;;5036094;28;20049;-52
2024/02/09 13:20:35;;;;;;;9.85;4.78;;;;;;;;;;5036266;28;20087;-52
2024/02/09 13:23:29;;;;;;;8.95;4.80;;;;;;;;;;5038669;28;20077;-59
2024/02/09 13:26:23;;;;;;;9.80;4.53;;;;;;;;;;5038641;28;20045;-59
2024/02/09 13:29:10;;;;;;;9.45;4.28;;;;;;;;;;5038317;28;20053;-59
2024/02/09 13:32:04;;;;;;;8.68;4.53;;;;;;;;;;5039599;28;20045;-59
2024/02/09 13:34:52;;;;;;;8.35;4.03;;;;;;;;;;5038308;28;20349;-59
2024/02/09 13:37:48;;;;;;;7.20;4.40;;;;;;;;;;5036506;28;20042;-59
2024/02/09 13:40:33;;;;;;;5.50;3.25;;;;;;;;;;5035095;28;20508;-59
2024/02/09 13:43:27;;;;;;;10.07;4.38;;;;;;;;;;5034665;28;20770;-59
2024/02/09 13:46:21;;;;;;;8.45;4.03;;;;;;;;;;5016850;28;20049;-59
2024/02/09 13:49:15;;;;;;;9.48;4.28;;;;;;;;;;5015315;28;20417;-59
2024/02/09 13:52:03;;;;;;;10.32;4.68;;;;;;;;;;5017748;28;20077;-69
2024/02/09 13:54:57;;;;;;;7.55;4.88;;;;;;;;;;5015167;28;20108;-69
2024/02/09 13:57:44;;;;;;;8.20;4.45;;;;;;;;;;5012323;28;20390;-71
2024/02/09 14:00:39;;;;;;;6.75;4.57;;;;;;;;;;5009992;28;20045;-69
2024/02/09 14:03:26;;;;;;;8.10;5.07;;;;;;;;;;5014202;28;20416;-69
2024/02/09 14:06:25;;;;;;;8.18;4.43;;;;;;;;;;5013301;28;20053;-59
2024/02/09 14:09:12;;;;;;;9.80;4.20;;;;;;;;;;5008734;28;20061;-59
2024/02/09 14:12:15;;;;;;;9.68;4.97;;;;;;;;;;5012025;28;20501;-59
2024/02/09 14:15:03;;;;;;;7.70;4.18;;;;;;;;;;5007215;28;20045;-59
2024/02/09 14:17:57;;;;;;;6.95;4.40;;;;;;;;;;4995323;28;20665;-49
2024/02/09 14:20:49;;;;;;;6.03;3.85;;;;;;;;;;5006520;28;20540;-62
2024/02/09 14:23:42;;;;;;;10.15;4.25;;;;;;;;;;5004305;28;20053;-62
2024/02/09 14:26:29;;;;;;;8.32;4.20;;;;;;;;;;5016437;28;21550;-63
2024/02/09 14:29:23;;;;;;;8.75;4.40;;;;;;;;;;5010733;28;20112;-62
2024/02/09 14:32:10;;;;;;;8.60;4.55;;;;;;;;;;5003294;28;20045;-62
2024/02/09 14:35:05;;;;;;;7.85;4.43;;;;;;;;;;5017680;28;20053;-62
2024/02/09 14:37:52;;;;;;;5.88;3.45;;;;;;;;;;4997718;28;20104;-62
2024/02/09 14:40:46;;;;;;;7.53;4.45;;;;;;;;;;5007685;28;20049;-62
2024/02/09 14:43:40;;;;;;;9.85;4.30;;;;;;;;;;5011859;28;20054;-61
2024/02/09 14:46:35;;;;;;;6.65;3.55;;;;;;;;;;5028741;28;20508;-60
2024/02/09 14:49:29;;;;;;;6.10;3.78;;;;;;;;;;5034797;28;20057;-62
2024/02/09 14:52:17;;;;;;;9.80;4.25;;;;;;;;;;5034902;28;20049;-60
2024/02/09 14:55:13;;;;;;;7.13;4.35;;;;;;;;;;5035420;28;20177;-61
2024/02/09 14:58:02;;;;;;;7.88;3.75;;;;;;;;;;5032987;28;20296;-61
2024/02/09 15:00:56;;;;;;;7.07;3.55;;;;;;;;;;5033113;28;20041;-61
2024/02/09 15:03:51;;;;;;;7.13;4.10;;;;;;;;;;5033624;28;20045;-53
2024/02/09 15:06:44;;;;;;;7.75;4.38;;;;;;;;;;5032616;28;20053;-54
2024/02/09 15:09:30;;;;;;;6.88;3.85;;;;;;;;;;5032455;28;20050;-52
2024/02/09 15:12:24;;;;;;;8.65;3.67;;;;;;;;;;5033601;28;20436;-62
2024/02/09 15:15:11;;;;;;;8.65;3.63;;;;;;;;;;5031096;28;20397;-54
2024/02/09 15:18:05;;;;;;;7.80;4.80;;;;;;;;;;5030515;28;20112;-56
2024/02/09 15:20:54;;;;;;;9.32;4.40;;;;;;;;;;5036155;28;20136;-52
2024/02/09 15:23:47;;;;;;;8.07;4.30;;;;;;;;;;5033842;28;20049;-57
2024/02/09 15:26:35;;;;;;;8.43;3.97;;;;;;;;;;5037334;28;20048;-53
2024/02/09 15:29:27;;;;;;;8.97;4.73;;;;;;;;;;5034295;28;20048;-54
2024/02/09 15:32:14;;;;;;;11.43;5.33;;;;;;;;;;5034190;28;20453;-63
2024/02/09 15:35:08;;;;;;;8.90;4.50;;;;;;;;;;5033255;28;20059;-60
2024/02/09 15:37:56;;;;;;;11.23;4.47;;;;;;;;;;5032573;28;20071;-61
2024/02/09 15:40:49;;;;;;;10.17;5.10;;;;;;;;;;5032013;28;20773;-60
2024/02/09 15:43:36;;;;;;;11.60;5.03;;;;;;;;;;5030288;28;20136;-59
2024/02/09 15:46:37;;;;;;;9.93;4.73;;;;;;;;;;5028415;28;20102;-52
2024/02/09 15:49:25;;;;;;;13.33;5.20;;;;;;;;;;5028481;28;20063;-50
2024/02/09 15:52:18;;;;;;;9.53;4.70;;;;;;;;;;5021596;28;20597;-48
2024/02/09 15:55:07;;;;;;;14.47;5.10;;;;;;;;;;5026712;28;20154;-51
2024/02/09 15:58:00;;;;;;;12.07;5.67;;;;;;;;;;5029447;28;20198;-52
2024/02/09 16:00:47;;;;;;;9.00;4.87;;;;;;;;;;5028266;28;20051;-51
2024/02/09 16:03:47;;;;;;;11.17;5.43;;;;;;;;;;5027645;28;20051;-52
2024/02/09 16:06:31;;;;;;;10.23;4.70;;;;;;;;;;5031512;28;20107;-51
2024/02/09 16:09:27;;;;;;;14.30;5.50;;;;;;;;;;5029695;28;20512;-61
2024/02/09 16:12:19;;;;;;;10.80;4.57;;;;;;;;;;5026647;28;20573;-61
2024/02/09 16:15:06;;;;;;;11.63;5.53;;;;;;;;;;5030016;28;20045;-60
2024/02/09 16:18:01;;;;;;;10.87;5.50;;;;;;;;;;5032156;28;20049;-60
2024/02/09 16:20:47;;;;;;;12.67;5.30;;;;;;;;;;5034986;28;20246;-60
2024/02/09 16:23:48;;;;;;;10.77;5.00;;;;;;;;;;5032802;28;20119;-60
2024/02/09 16:26:32;;;;;;;9.00;4.80;;;;;;;;;;5036490;28;20563;-60
2024/02/09 16:29:26;;;;;;;9.17;4.70;;;;;;;;;;5036126;28;20084;-61
2024/02/09 16:32:20;;;;;;;11.53;4.83;;;;;;;;;;5032728;28;20543;-61
2024/02/09 16:35:07;;;;;;;7.60;4.40;;;;;;;;;;5030699;28;20098;-61
2024/02/09 16:38:01;;;;;;;9.57;4.67;;;;;;;;;;5032167;28;20115;-61
2024/02/09 16:40:48;;;;;;;10.43;4.73;;;;;;;;;;5030173;28;20053;-61
